createdAt,value
2018-07-31T00:01:39.537Z,100972.63
2018-07-31T00:04:07.739Z,100975.77
2018-07-31T00:06:35.948Z,100978.87
2018-07-31T00:09:05.608Z,100986.89
2018-07-31T00:11:33.821Z,100981.60
2018-07-31T00:14:02.116Z,100977.77
2018-07-31T00:16:30.347Z,100979.64
2018-07-31T00:18:58.556Z,100979.64
2018-07-31T00:21:26.804Z,100975.52
2018-07-31T00:23:55.078Z,100973.03
2018-07-31T00:26:23.276Z,100977.30
2018-07-31T00:28:51.516Z,100971.89
2018-07-31T00:31:19.728Z,100973.86
2018-07-31T00:33:47.936Z,100973.86
2018-07-31T00:36:16.192Z,100973.86
2018-07-31T00:38:44.424Z,100971.28
2018-07-31T00:41:12.663Z,100980.00
2018-07-31T00:43:40.881Z,100969.92
2018-07-31T00:46:09.092Z,100974.81
2018-07-31T00:48:37.308Z,100966.17
2018-07-31T00:51:05.576Z,100970.23
2018-07-31T00:53:33.808Z,100963.28
2018-07-31T00:56:02.065Z,100970.45
2018-07-31T00:58:30.288Z,100969.31
2018-07-31T01:00:58.516Z,100971.40
2018-07-31T01:03:26.726Z,100971.40
2018-07-31T01:05:55.188Z,100966.94
2018-07-31T01:08:23.459Z,100950.50
2018-07-31T01:10:51.652Z,100966.78
2018-07-31T01:13:19.956Z,100965.86
2018-07-31T01:15:48.169Z,100971.89
2018-07-31T01:18:16.397Z,100960.36
2018-07-31T01:20:48.031Z,100967.31
2018-07-31T01:23:16.305Z,100971.25
2018-07-31T01:25:44.536Z,100965.84
2018-07-31T01:28:12.787Z,100969.58
2018-07-31T01:30:41.033Z,100974.38
2018-07-31T01:33:09.287Z,100968.56
2018-07-31T01:35:37.528Z,100968.16
2018-07-31T01:38:05.776Z,100968.80
2018-07-31T01:40:34.047Z,100969.78
2018-07-31T01:43:02.250Z,100968.86
2018-07-31T01:45:30.469Z,100966.47
2018-07-31T01:47:58.700Z,100964.07
2018-07-31T01:50:26.918Z,100967.20
2018-07-31T01:52:55.186Z,100975.11
2018-07-31T01:55:23.420Z,100977.52
2018-07-31T01:57:51.656Z,100974.50
2018-07-31T02:00:19.932Z,100970.59
2018-07-31T02:02:48.208Z,100974.33
2018-07-31T02:05:16.431Z,100962.83
2018-07-31T02:07:44.648Z,100970.48
2018-07-31T02:10:12.880Z,100973.39
2018-07-31T02:12:41.168Z,100966.88
2018-07-31T02:15:09.465Z,100970.83
2018-07-31T02:17:37.657Z,100973.75
2018-07-31T02:20:05.904Z,100971.67
2018-07-31T02:22:34.129Z,100971.89
2018-07-31T02:25:02.343Z,100975.63
2018-07-31T02:27:30.552Z,100982.08
2018-07-31T02:30:04.161Z,100977.13
2018-07-31T02:32:32.387Z,100975.67
2018-07-31T02:35:00.626Z,100976.19
2018-07-31T02:37:29.225Z,100978.16
2018-07-31T02:39:57.448Z,100979.58
2018-07-31T02:42:25.744Z,100976.67
2018-07-31T02:44:53.982Z,100975.84
2018-07-31T02:47:22.193Z,100980.86
2018-07-31T02:49:50.468Z,100971.52
2018-07-31T02:52:18.680Z,100972.66
2018-07-31T02:54:46.899Z,100972.77
2018-07-31T02:57:15.109Z,100972.87
2018-07-31T02:59:43.339Z,100969.45
2018-07-31T03:02:11.589Z,100974.23
2018-07-31T03:04:39.823Z,100972.05
2018-07-31T03:07:08.054Z,100974.44
2018-07-31T03:09:36.265Z,100968.45
2018-07-31T03:12:04.499Z,100956.82
2018-07-31T03:14:32.760Z,100970.94
2018-07-31T03:17:01.005Z,100975.09
2018-07-31T03:19:29.305Z,100968.25
2018-07-31T03:21:57.525Z,100972.19
2018-07-31T03:24:25.742Z,100967.45
2018-07-31T03:26:54.005Z,100965.27
2018-07-31T03:29:24.699Z,100975.03
2018-07-31T03:31:53.804Z,100980.63
2018-07-31T03:34:22.032Z,100965.16
2018-07-31T03:36:50.328Z,100976.06
2018-07-31T03:39:18.544Z,100982.19
2018-07-31T03:41:46.772Z,100983.85
2018-07-31T03:44:15.009Z,100980.53
2018-07-31T03:46:43.228Z,100986.02
2018-07-31T03:49:11.492Z,100992.15
2018-07-31T03:51:39.717Z,100982.39
2018-07-31T03:54:08.029Z,100987.58
2018-07-31T03:56:36.246Z,100986.95
2018-07-31T03:59:04.882Z,100982.28
2018-07-31T04:01:33.177Z,100984.59
2018-07-31T04:04:01.496Z,100976.39
2018-07-31T04:06:29.712Z,100977.95
2018-07-31T04:08:57.944Z,100983.03
2018-07-31T04:11:26.177Z,100992.16
2018-07-31T04:13:54.400Z,100982.30
2018-07-31T04:16:22.625Z,100986.78
2018-07-31T04:18:50.845Z,100990.72
2018-07-31T04:21:19.072Z,100992.48
2018-07-31T04:23:47.296Z,100995.06
2018-07-31T04:26:15.533Z,100996.94
2018-07-31T04:28:43.752Z,100995.38
2018-07-31T04:31:12.016Z,100999.33
2018-07-31T04:33:40.244Z,101002.86
2018-07-31T04:36:08.522Z,100997.98
2018-07-31T04:38:36.720Z,100983.03
2018-07-31T04:41:04.951Z,101001.50
2018-07-31T04:43:33.140Z,101000.55
2018-07-31T04:46:01.410Z,101002.45
2018-07-31T04:48:29.648Z,101007.22
2018-07-31T04:50:57.863Z,101008.45
2018-07-31T04:53:26.105Z,101008.83
2018-07-31T04:55:54.320Z,101001.77
2018-07-31T04:58:22.583Z,100999.67
2018-07-31T05:00:50.848Z,101005.97
2018-07-31T05:03:19.144Z,101013.62
2018-07-31T05:05:47.410Z,101015.59
2018-07-31T05:08:15.624Z,101017.13
2018-07-31T05:10:43.854Z,101021.37
2018-07-31T05:13:12.116Z,101024.89
2018-07-31T05:15:40.357Z,101022.20
2018-07-31T05:18:08.650Z,101023.87
2018-07-31T05:20:36.864Z,101013.30
2018-07-31T05:23:05.088Z,101013.10
2018-07-31T05:25:33.305Z,101014.64
2018-07-31T05:28:01.548Z,101021.61
2018-07-31T05:30:29.784Z,101022.64
2018-07-31T05:32:58.117Z,101019.31
2018-07-31T05:35:26.340Z,101024.82
2018-07-31T05:37:55.800Z,101031.55
2018-07-31T05:40:24.060Z,101033.93
2018-07-31T05:42:52.283Z,101031.04
2018-07-31T05:45:20.520Z,101039.95
2018-07-31T05:47:48.749Z,101041.91
2018-07-31T05:50:16.956Z,101043.89
2018-07-31T05:52:45.161Z,101043.61
2018-07-31T05:55:13.445Z,101044.17
2018-07-31T05:57:41.721Z,101054.00
2018-07-31T06:00:10.011Z,101046.23
2018-07-31T06:02:38.204Z,101051.98
2018-07-31T06:05:06.485Z,101054.28
2018-07-31T06:07:34.724Z,101044.16
2018-07-31T06:10:02.954Z,101048.84
2018-07-31T06:12:31.172Z,101048.14
2018-07-31T06:14:59.392Z,101056.89
2018-07-31T06:17:27.621Z,101060.00
2018-07-31T06:19:55.836Z,101059.48
2018-07-31T06:22:24.113Z,101053.16
2018-07-31T06:24:52.372Z,101058.35
2018-07-31T06:27:20.608Z,101066.04
2018-07-31T06:29:48.866Z,101060.15
2018-07-31T06:32:17.094Z,101066.97
2018-07-31T06:34:45.309Z,101068.95
2018-07-31T06:37:13.541Z,101074.37
2018-07-31T06:39:41.808Z,101078.92
2018-07-31T06:42:10.306Z,101074.26
2018-07-31T06:44:39.117Z,101073.64
2018-07-31T06:47:07.453Z,101072.72
2018-07-31T06:49:35.747Z,101081.20
2018-07-31T06:52:04.004Z,101074.39
2018-07-31T06:54:32.244Z,101078.35
2018-07-31T06:57:00.484Z,101085.00
2018-07-31T06:59:28.741Z,101090.27
2018-07-31T07:01:56.979Z,101087.37
2018-07-31T07:04:25.177Z,101085.40
2018-07-31T07:06:53.433Z,101095.38
2018-07-31T07:09:21.750Z,101089.02
2018-07-31T07:11:49.920Z,101086.73
2018-07-31T07:14:18.125Z,101088.50
2018-07-31T07:16:46.373Z,101090.27
2018-07-31T07:19:14.584Z,101084.34
2018-07-31T07:21:42.852Z,101087.12
2018-07-31T07:24:11.088Z,101084.94
2018-07-31T07:26:39.317Z,101084.63
2018-07-31T07:29:07.533Z,101090.41
2018-07-31T07:31:35.792Z,101085.01
2018-07-31T07:34:04.022Z,101084.41
2018-07-31T07:36:32.289Z,101075.03
2018-07-31T07:39:00.538Z,101074.09
2018-07-31T07:41:28.756Z,101066.92
2018-07-31T07:43:57.043Z,101060.81
2018-07-31T07:46:25.306Z,101059.63
2018-07-31T07:48:53.532Z,101055.78
2018-07-31T07:51:21.765Z,101054.31
2018-07-31T07:53:49.993Z,101063.05
2018-07-31T07:56:18.228Z,101062.62
2018-07-31T07:58:46.492Z,101069.23
2018-07-31T08:01:14.704Z,101076.81
2018-07-31T08:03:42.939Z,101070.98
2018-07-31T08:06:11.168Z,101064.70
2018-07-31T08:08:39.396Z,101069.56
2018-07-31T08:11:07.768Z,101072.12
2018-07-31T08:13:35.972Z,101069.30
2018-07-31T08:16:04.804Z,101071.58
2018-07-31T08:18:33.026Z,101070.84
2018-07-31T08:21:01.277Z,101077.60
2018-07-31T08:23:29.504Z,101076.98
2018-07-31T08:25:57.724Z,101081.35
2018-07-31T08:28:26.009Z,101081.66
2018-07-31T08:30:54.276Z,101079.88
2018-07-31T08:33:22.533Z,101080.77
2018-07-31T08:35:50.772Z,101089.84
2018-07-31T08:38:18.993Z,101078.29
2018-07-31T08:40:47.236Z,101080.56
2018-07-31T08:43:15.461Z,101085.03
2018-07-31T08:45:43.689Z,101086.23
2018-07-31T08:48:11.940Z,101077.28
2018-07-31T08:50:40.176Z,101096.50
2018-07-31T08:53:08.464Z,101096.16
2018-07-31T08:55:36.730Z,101097.77
2018-07-31T08:58:04.925Z,101094.93
2018-07-31T09:00:33.131Z,101101.87
2018-07-31T09:03:01.383Z,101100.59
2018-07-31T09:05:29.640Z,101102.55
2018-07-31T09:07:57.860Z,101096.83
2018-07-31T09:10:26.080Z,101094.73
2018-07-31T09:12:54.304Z,101102.42
2018-07-31T09:15:22.543Z,101096.88
2018-07-31T09:17:50.812Z,101086.80
2018-07-31T09:20:19.052Z,101101.70
2018-07-31T09:22:47.276Z,101090.26
2018-07-31T09:25:15.500Z,101100.43
2018-07-31T09:27:43.765Z,101103.59
2018-07-31T09:30:12.140Z,101092.62
2018-07-31T09:32:45.778Z,101086.59
2018-07-31T09:35:14.013Z,101090.17
2018-07-31T09:37:42.292Z,101083.78
2018-07-31T09:40:10.536Z,101089.89
2018-07-31T09:42:38.791Z,101088.06
2018-07-31T09:45:07.008Z,101094.30
2018-07-31T09:47:35.265Z,101092.62
2018-07-31T09:50:03.556Z,101094.88
2018-07-31T09:52:31.769Z,101100.69
2018-07-31T09:55:00.045Z,101102.51
2018-07-31T09:57:28.724Z,101102.11
2018-07-31T09:59:57.020Z,101108.52
2018-07-31T10:02:25.290Z,101107.01
2018-07-31T10:04:53.524Z,101109.42
2018-07-31T10:07:21.722Z,101104.14
2018-07-31T10:09:49.936Z,101106.38
2018-07-31T10:12:18.169Z,101105.92
2018-07-31T10:14:46.452Z,101102.07
2018-07-31T10:17:14.732Z,101111.00
2018-07-31T10:19:42.963Z,101107.84
2018-07-31T10:22:11.213Z,101104.96
2018-07-31T10:24:39.428Z,101111.52
2018-07-31T10:27:07.688Z,101113.71
2018-07-31T10:29:35.961Z,101114.28
2018-07-31T10:32:04.484Z,101111.34
2018-07-31T10:34:32.708Z,101112.15
2018-07-31T10:37:00.896Z,101118.46
2018-07-31T10:39:29.128Z,101112.67
2018-07-31T10:41:57.464Z,101109.33
2018-07-31T10:44:25.741Z,101108.11
2018-07-31T10:46:53.944Z,101112.17
2018-07-31T10:49:22.240Z,101111.14
2018-07-31T10:51:50.460Z,101109.66
2018-07-31T10:54:18.764Z,101108.63
2018-07-31T10:56:47.008Z,101124.63
2018-07-31T10:59:15.212Z,101121.99
2018-07-31T11:01:43.457Z,101119.86
2018-07-31T11:04:11.698Z,101122.67
2018-07-31T11:06:39.957Z,101129.32
2018-07-31T11:09:09.804Z,101121.42
2018-07-31T11:11:38.056Z,101121.64
2018-07-31T11:14:06.953Z,101122.98
2018-07-31T11:16:35.320Z,101120.02
2018-07-31T11:19:03.536Z,101120.49
2018-07-31T11:21:32.019Z,101116.00
2018-07-31T11:24:00.264Z,101122.97
2018-07-31T11:26:28.576Z,101125.69
2018-07-31T11:28:56.808Z,101121.85
2018-07-31T11:31:25.232Z,101124.66
2018-07-31T11:33:53.461Z,101118.02
2018-07-31T11:36:21.744Z,101123.84
2018-07-31T11:38:50.004Z,101131.95
2018-07-31T11:41:18.212Z,101127.02
2018-07-31T11:43:46.428Z,101120.60
2018-07-31T11:46:14.672Z,101118.16
2018-07-31T11:48:43.017Z,101122.42
2018-07-31T11:51:11.227Z,101114.61
2018-07-31T11:53:39.468Z,101119.06
2018-07-31T11:56:07.785Z,101122.26
2018-07-31T11:58:36.041Z,101124.53
2018-07-31T12:01:04.372Z,101120.27
2018-07-31T12:03:32.629Z,101121.98
2018-07-31T12:06:00.849Z,101113.89
2018-07-31T12:08:29.124Z,101115.03
2018-07-31T12:10:57.400Z,101120.02
2018-07-31T12:13:25.696Z,101116.75
2018-07-31T12:15:53.962Z,101120.11
2018-07-31T12:18:22.164Z,101120.20
2018-07-31T12:20:50.408Z,101112.82
2018-07-31T12:23:18.572Z,101113.41
2018-07-31T12:25:46.857Z,101110.15
2018-07-31T12:28:15.805Z,101109.88
2018-07-31T12:30:44.012Z,101107.35
2018-07-31T12:33:12.239Z,101120.81
2018-07-31T12:35:40.697Z,101112.41
2018-07-31T12:38:09.041Z,101102.36
2018-07-31T12:40:37.257Z,101105.94
2018-07-31T12:43:05.512Z,101122.39
2018-07-31T12:45:33.767Z,101136.17
2018-07-31T12:48:01.995Z,101117.21
2018-07-31T12:50:30.197Z,101118.01
2018-07-31T12:52:58.533Z,101128.47
2018-07-31T12:55:26.785Z,101120.91
2018-07-31T12:57:55.048Z,101122.73
2018-07-31T13:00:23.281Z,101109.67
2018-07-31T13:02:51.500Z,101116.87
2018-07-31T13:05:19.831Z,101120.77
2018-07-31T13:07:48.043Z,101121.03
2018-07-31T13:10:16.287Z,101124.16
2018-07-31T13:12:44.541Z,101121.96
2018-07-31T13:15:12.768Z,101112.63
2018-07-31T13:17:41.024Z,101109.88
2018-07-31T13:20:09.300Z,101111.95
2018-07-31T13:22:37.605Z,101110.02
2018-07-31T13:25:05.952Z,101109.07
2018-07-31T13:27:34.216Z,101104.73
2018-07-31T13:30:02.481Z,101113.20
2018-07-31T13:32:30.720Z,101128.75
2018-07-31T13:34:58.974Z,101115.31
2018-07-31T13:37:27.196Z,101126.44
2018-07-31T13:39:55.412Z,101122.28
2018-07-31T13:42:23.648Z,101126.27
2018-07-31T13:44:51.900Z,101125.28
2018-07-31T13:47:20.155Z,101121.47
2018-07-31T13:49:48.381Z,101126.43
2018-07-31T13:52:16.601Z,101117.36
2018-07-31T13:54:44.819Z,101115.72
2018-07-31T13:57:13.064Z,101118.36
2018-07-31T13:59:41.324Z,101116.62
2018-07-31T14:02:09.630Z,101112.38
2018-07-31T14:04:37.916Z,101126.48
2018-07-31T14:07:06.193Z,101115.03
2018-07-31T14:09:34.388Z,101107.41
2018-07-31T14:12:02.597Z,101115.59
2018-07-31T14:14:30.970Z,101122.06
2018-07-31T14:16:59.189Z,101113.26
2018-07-31T14:19:27.434Z,101112.17
2018-07-31T14:21:55.652Z,101117.12
2018-07-31T14:24:23.940Z,101114.20
2018-07-31T14:26:52.140Z,101118.02
2018-07-31T14:29:20.589Z,101122.72
2018-07-31T14:31:48.824Z,101139.99
2018-07-31T14:34:17.048Z,101138.63
2018-07-31T14:36:45.293Z,101135.05
2018-07-31T14:39:13.532Z,101133.17
2018-07-31T14:41:41.840Z,101127.16
2018-07-31T14:44:10.145Z,101132.05
2018-07-31T14:46:38.376Z,101126.84
2018-07-31T14:49:06.636Z,101128.71
2018-07-31T14:51:34.864Z,101126.48
2018-07-31T14:54:03.121Z,101128.09
2018-07-31T14:56:31.310Z,101128.33
2018-07-31T14:58:59.582Z,101132.16
2018-07-31T15:01:27.800Z,101128.31
2018-07-31T15:03:56.025Z,101129.69
2018-07-31T15:06:24.221Z,101134.07
2018-07-31T15:08:52.417Z,101125.89
2018-07-31T15:11:20.775Z,101122.94
2018-07-31T15:13:48.984Z,101145.13
2018-07-31T15:16:17.184Z,101133.38
2018-07-31T15:18:45.392Z,101130.67
2018-07-31T15:21:13.691Z,101143.28
2018-07-31T15:23:41.898Z,101137.57
2018-07-31T15:26:10.136Z,101137.92
2018-07-31T15:28:38.353Z,101139.88
2018-07-31T15:31:06.576Z,101143.50
2018-07-31T15:33:35.069Z,101147.32
2018-07-31T15:36:03.316Z,101142.39
2018-07-31T15:38:31.568Z,101137.14
2018-07-31T15:40:59.796Z,101145.53
2018-07-31T15:43:28.028Z,101148.36
2018-07-31T15:45:56.241Z,101140.31
2018-07-31T15:48:24.500Z,101144.88
2018-07-31T15:50:52.708Z,101156.91
2018-07-31T15:53:20.929Z,101157.22
2018-07-31T15:55:49.154Z,101156.19
2018-07-31T15:58:17.374Z,101152.73
2018-07-31T16:00:45.656Z,101153.43
2018-07-31T16:03:13.952Z,101157.39
2018-07-31T16:05:42.194Z,101151.50
2018-07-31T16:08:10.424Z,101157.64
2018-07-31T16:10:38.749Z,101163.81
2018-07-31T16:13:07.056Z,101162.08
2018-07-31T16:15:35.317Z,101158.69
2018-07-31T16:18:03.549Z,101162.20
2018-07-31T16:20:31.832Z,101166.09
2018-07-31T16:23:00.143Z,101161.16
2018-07-31T16:25:28.306Z,101163.31
2018-07-31T16:27:56.572Z,101157.06
2018-07-31T16:30:24.800Z,101159.36
2018-07-31T16:32:53.044Z,101161.91
2018-07-31T16:35:21.348Z,101170.11
2018-07-31T16:37:49.605Z,101163.77
2018-07-31T16:40:17.812Z,101170.97
2018-07-31T16:42:46.057Z,101180.97
2018-07-31T16:45:14.281Z,101165.83
2018-07-31T16:47:42.556Z,101168.44
2018-07-31T16:50:10.809Z,101175.89
2018-07-31T16:52:39.028Z,101173.53
2018-07-31T16:55:07.338Z,101174.10
2018-07-31T16:57:35.561Z,101175.57
2018-07-31T17:00:03.872Z,101178.28
2018-07-31T17:02:32.084Z,101168.20
2018-07-31T17:05:00.332Z,101162.97
2018-07-31T17:07:28.593Z,101164.59
2018-07-31T17:09:56.820Z,101160.64
2018-07-31T17:12:25.088Z,101168.83
2018-07-31T17:14:53.404Z,101167.35
2018-07-31T17:17:21.639Z,101161.77
2018-07-31T17:19:49.836Z,101169.40
2018-07-31T17:22:18.237Z,101173.42
2018-07-31T17:24:46.444Z,101178.95
2018-07-31T17:27:14.656Z,101171.31
2018-07-31T17:29:43.152Z,101177.09
2018-07-31T17:32:11.372Z,101182.25
2018-07-31T17:34:39.600Z,101190.41
2018-07-31T17:37:07.894Z,101191.90
2018-07-31T17:39:36.109Z,101197.09
2018-07-31T17:42:04.412Z,101198.16
2018-07-31T17:44:32.748Z,101202.31
2018-07-31T17:47:00.908Z,101205.58
2018-07-31T17:49:29.122Z,101198.47
2018-07-31T17:51:57.341Z,101200.98
2018-07-31T17:54:25.564Z,101214.14
2018-07-31T17:56:53.816Z,101206.59
2018-07-31T17:59:22.064Z,101201.01
2018-07-31T18:01:50.292Z,101203.63
2018-07-31T18:04:18.528Z,101210.30
2018-07-31T18:06:46.748Z,101212.65
2018-07-31T18:09:15.005Z,101209.23
2018-07-31T18:11:43.226Z,101212.16
2018-07-31T18:14:11.604Z,101206.90
2018-07-31T18:16:39.721Z,101207.91
2018-07-31T18:19:08.312Z,101216.79
2018-07-31T18:21:36.537Z,101213.98
2018-07-31T18:24:05.484Z,101218.54
2018-07-31T18:26:33.713Z,101223.27
2018-07-31T18:29:01.977Z,101224.25
2018-07-31T18:31:30.216Z,101221.94
2018-07-31T18:33:58.548Z,101226.25
2018-07-31T18:36:26.824Z,101222.29
2018-07-31T18:38:55.040Z,101227.76
2018-07-31T18:41:23.345Z,101229.13
2018-07-31T18:43:51.490Z,101225.01
2018-07-31T18:46:19.738Z,101230.98
2018-07-31T18:48:47.969Z,101229.09
2018-07-31T18:51:16.201Z,101232.34
2018-07-31T18:53:44.420Z,101237.95
2018-07-31T18:56:13.152Z,101234.58
2018-07-31T18:58:41.399Z,101230.93
2018-07-31T19:01:09.733Z,101237.60
2018-07-31T19:03:38.037Z,101243.22
2018-07-31T19:06:06.569Z,101243.91
2018-07-31T19:08:34.776Z,101246.30
2018-07-31T19:11:02.984Z,101249.48
2018-07-31T19:13:31.217Z,101250.11
2018-07-31T19:15:59.436Z,101257.41
2018-07-31T19:18:27.712Z,101261.19
2018-07-31T19:20:55.924Z,101270.40
2018-07-31T19:23:24.219Z,101268.14
2018-07-31T19:25:52.473Z,101275.17
2018-07-31T19:28:20.856Z,101277.82
2018-07-31T19:30:48.948Z,101279.01
2018-07-31T19:33:17.186Z,101274.22
2018-07-31T19:35:45.432Z,101283.81
2018-07-31T19:38:13.656Z,101284.53
2018-07-31T19:40:41.901Z,101290.58
2018-07-31T19:43:10.122Z,101297.53
2018-07-31T19:45:38.360Z,101298.24
2018-07-31T19:48:06.593Z,101310.92
2018-07-31T19:50:34.940Z,101307.98
2018-07-31T19:53:03.177Z,101311.75
2018-07-31T19:55:31.461Z,101316.28
2018-07-31T19:57:59.676Z,101315.37
2018-07-31T20:00:27.998Z,101319.38
2018-07-31T20:02:56.250Z,101320.16
2018-07-31T20:05:24.468Z,101324.16
2018-07-31T20:07:52.708Z,101328.98
2018-07-31T20:10:20.952Z,101331.51
2018-07-31T20:12:49.191Z,101330.03
2018-07-31T20:15:17.508Z,101342.70
2018-07-31T20:17:45.837Z,101348.87
2018-07-31T20:20:14.056Z,101351.73
2018-07-31T20:22:42.284Z,101344.56
2018-07-31T20:25:10.616Z,101352.70
2018-07-31T20:27:38.825Z,101352.05
2018-07-31T20:30:07.472Z,101351.14
2018-07-31T20:32:35.697Z,101348.56
2018-07-31T20:35:03.960Z,101353.38
2018-07-31T20:37:32.241Z,101350.06
2018-07-31T20:40:00.552Z,101360.09
2018-07-31T20:42:28.804Z,101365.77
2018-07-31T20:44:57.040Z,101371.95
2018-07-31T20:47:25.304Z,101375.41
2018-07-31T20:49:53.608Z,101379.17
2018-07-31T20:52:21.949Z,101379.61
2018-07-31T20:54:50.125Z,101373.19
2018-07-31T20:57:18.896Z,101378.86
2018-07-31T20:59:47.170Z,101380.66
2018-07-31T21:02:15.392Z,101374.50
2018-07-31T21:04:43.636Z,101383.69
2018-07-31T21:07:11.966Z,101387.67
2018-07-31T21:09:40.265Z,101388.42
2018-07-31T21:12:08.476Z,101389.41
2018-07-31T21:14:36.704Z,101389.85
2018-07-31T21:17:04.940Z,101392.70
2018-07-31T21:19:33.221Z,101392.83
2018-07-31T21:22:01.477Z,101384.38
2018-07-31T21:24:29.818Z,101394.13
2018-07-31T21:26:58.095Z,101403.84
2018-07-31T21:29:26.357Z,101400.08
2018-07-31T21:31:54.545Z,101401.03
2018-07-31T21:34:22.748Z,101399.80
2018-07-31T21:36:51.028Z,101402.42
2018-07-31T21:39:19.355Z,101408.06
2018-07-31T21:41:47.496Z,101406.34
2018-07-31T21:44:15.789Z,101411.36
2018-07-31T21:46:44.041Z,101414.81
2018-07-31T21:49:12.300Z,101415.55
2018-07-31T21:51:40.624Z,101406.19
2018-07-31T21:54:08.842Z,101413.70
2018-07-31T21:56:37.411Z,101409.17
2018-07-31T21:59:05.631Z,101418.23
2018-07-31T22:01:33.888Z,101423.56
2018-07-31T22:04:02.193Z,101427.01
2018-07-31T22:06:30.437Z,101424.30
2018-07-31T22:08:58.698Z,101416.25
2018-07-31T22:11:27.335Z,101420.53
2018-07-31T22:13:55.562Z,101426.69
2018-07-31T22:16:23.766Z,101428.50
2018-07-31T22:18:52.216Z,101440.30
2018-07-31T22:21:20.498Z,101444.48
2018-07-31T22:23:48.760Z,101440.22
2018-07-31T22:26:16.984Z,101443.69
2018-07-31T22:28:45.256Z,101445.06
2018-07-31T22:31:13.446Z,101444.24
2018-07-31T22:33:41.984Z,101454.17
2018-07-31T22:36:10.223Z,101452.00
2018-07-31T22:38:38.560Z,101447.97
2018-07-31T22:41:06.908Z,101446.94
2018-07-31T22:43:35.220Z,101438.71
2018-07-31T22:46:03.404Z,101447.43
2018-07-31T22:48:31.641Z,101440.59
2018-07-31T22:50:59.871Z,101441.11
2018-07-31T22:53:28.129Z,101439.12
2018-07-31T22:55:56.344Z,101443.92
2018-07-31T22:58:24.700Z,101439.55
2018-07-31T23:00:52.908Z,101441.95
2018-07-31T23:03:21.158Z,101445.80
2018-07-31T23:05:49.460Z,101451.52
2018-07-31T23:08:17.676Z,101457.59
2018-07-31T23:10:45.891Z,101453.02
2018-07-31T23:13:14.100Z,101447.59
2018-07-31T23:15:42.336Z,101444.29
2018-07-31T23:18:10.575Z,101440.51
2018-07-31T23:20:38.795Z,101435.55
2018-07-31T23:23:07.004Z,101436.79
2018-07-31T23:25:35.228Z,101436.37
2018-07-31T23:28:03.472Z,101435.74
2018-07-31T23:30:31.697Z,101435.04
2018-07-31T23:32:59.988Z,101440.34
2018-07-31T23:35:28.311Z,101447.84
2018-07-31T23:37:56.546Z,101448.14
2018-07-31T23:40:24.764Z,101445.73
2018-07-31T23:42:52.983Z,101451.87
2018-07-31T23:45:21.292Z,101454.89
2018-07-31T23:47:49.652Z,101454.89
2018-07-31T23:50:17.872Z,101447.61
2018-07-31T23:52:46.165Z,101444.28
2018-07-31T23:55:14.484Z,101444.28
2018-07-31T23:57:42.730Z,101450.32
